createdAt,value
2017-09-15T00:00:04.771Z,98142.98
2017-09-15T00:02:33.887Z,98140.59
2017-09-15T00:05:02.981Z,98138.09
2017-09-15T00:07:32.060Z,98141.17
2017-09-15T00:10:00.413Z,98147.86
2017-09-15T00:12:28.765Z,98140.52
2017-09-15T00:14:57.149Z,98138.50
2017-09-15T00:17:25.474Z,98139.59
2017-09-15T00:19:53.933Z,98135.83
2017-09-15T00:22:22.257Z,98130.80
2017-09-15T00:24:51.351Z,98124.95
2017-09-15T00:27:20.464Z,98127.80
2017-09-15T00:29:48.799Z,98126.17
2017-09-15T00:32:17.165Z,98126.39
2017-09-15T00:34:45.497Z,98126.05
2017-09-15T00:37:13.841Z,98130.91
2017-09-15T00:39:42.189Z,98121.36
2017-09-15T00:42:10.525Z,98122.94
2017-09-15T00:44:39.642Z,98121.73
2017-09-15T00:47:07.973Z,98119.34
2017-09-15T00:49:36.568Z,98122.34
2017-09-15T00:52:04.893Z,98122.37
2017-09-15T00:54:33.205Z,98120.72
2017-09-15T00:57:01.564Z,98118.65
2017-09-15T00:59:29.878Z,98124.52
2017-09-15T01:01:58.216Z,98120.49
2017-09-15T01:04:26.531Z,98127.77
2017-09-15T01:06:54.881Z,98119.05
2017-09-15T01:09:23.210Z,98112.91
2017-09-15T01:11:52.327Z,98117.77
2017-09-15T01:14:20.662Z,98115.25
2017-09-15T01:16:48.975Z,98118.16
2017-09-15T01:19:18.087Z,98113.02
2017-09-15T01:21:46.437Z,98119.13
2017-09-15T01:24:15.517Z,98119.32
2017-09-15T01:26:44.104Z,98121.62
2017-09-15T01:29:12.428Z,98125.41
2017-09-15T01:31:40.758Z,98121.27
2017-09-15T01:34:09.102Z,98125.22
2017-09-15T01:36:37.413Z,98125.73
2017-09-15T01:39:06.018Z,98121.67
2017-09-15T01:41:34.336Z,98124.84
2017-09-15T01:44:02.667Z,98121.53
2017-09-15T01:46:31.023Z,98119.18
2017-09-15T01:48:59.348Z,98120.47
2017-09-15T01:51:28.718Z,98118.61
2017-09-15T01:53:57.061Z,98117.55
2017-09-15T01:56:25.384Z,98118.69
2017-09-15T01:58:53.729Z,98107.64
2017-09-15T02:01:22.089Z,98107.34
2017-09-15T02:03:50.445Z,98107.09
2017-09-15T02:06:19.558Z,98108.86
2017-09-15T02:08:47.903Z,98108.51
2017-09-15T02:11:16.257Z,98110.53
2017-09-15T02:13:44.588Z,98101.53
2017-09-15T02:16:13.237Z,98116.37
2017-09-15T02:18:41.573Z,98103.87
2017-09-15T02:21:09.925Z,98111.71
2017-09-15T02:23:39.049Z,98097.41
2017-09-15T02:26:07.382Z,98098.54
2017-09-15T02:28:35.990Z,98094.79
2017-09-15T02:31:05.070Z,98100.06
2017-09-15T02:33:33.389Z,98095.92
2017-09-15T02:36:01.739Z,98098.39
2017-09-15T02:38:30.109Z,98095.00
2017-09-15T02:40:58.696Z,98091.47
2017-09-15T02:43:27.789Z,98092.58
2017-09-15T02:45:56.197Z,98091.64
2017-09-15T02:48:25.326Z,98092.21
2017-09-15T02:50:53.699Z,98084.51
2017-09-15T02:53:22.311Z,98080.10
2017-09-15T02:55:50.645Z,98075.36
2017-09-15T02:58:18.973Z,98085.30
2017-09-15T03:00:47.395Z,98077.09
2017-09-15T03:03:16.500Z,98068.81
2017-09-15T03:05:44.945Z,98074.53
2017-09-15T03:08:14.035Z,98071.58
2017-09-15T03:10:42.937Z,98070.29
2017-09-15T03:13:11.267Z,98073.76
2017-09-15T03:15:39.575Z,98071.38
2017-09-15T03:18:07.906Z,98069.33
2017-09-15T03:20:36.225Z,98074.22
2017-09-15T03:23:04.570Z,98078.75
2017-09-15T03:25:32.915Z,98072.20
2017-09-15T03:28:01.244Z,98068.56
2017-09-15T03:30:29.844Z,98067.28
2017-09-15T03:32:58.181Z,98069.00
2017-09-15T03:35:26.498Z,98065.76
2017-09-15T03:37:54.835Z,98069.30
2017-09-15T03:40:23.926Z,98062.97
2017-09-15T03:42:53.181Z,98064.08
2017-09-15T03:45:21.528Z,98061.12
2017-09-15T03:47:49.843Z,98063.03
2017-09-15T03:50:18.178Z,98043.92
2017-09-15T03:52:46.502Z,98048.41
2017-09-15T03:55:14.894Z,98041.48
2017-09-15T03:57:43.235Z,98041.98
2017-09-15T04:00:12.530Z,98046.35
2017-09-15T04:02:40.859Z,98045.30
2017-09-15T04:05:09.181Z,98045.44
2017-09-15T04:07:37.523Z,98046.41
2017-09-15T04:10:05.871Z,98047.10
2017-09-15T04:12:34.197Z,98048.75
2017-09-15T04:15:03.316Z,98052.07
2017-09-15T04:17:31.630Z,98050.34
2017-09-15T04:20:00.226Z,98051.97
2017-09-15T04:22:28.563Z,98046.30
2017-09-15T04:24:56.889Z,98046.73
2017-09-15T04:27:25.225Z,98050.33
2017-09-15T04:29:53.573Z,98047.45
2017-09-15T04:32:22.692Z,98046.16
2017-09-15T04:34:51.038Z,98046.73
2017-09-15T04:37:20.152Z,98048.09
2017-09-15T04:39:48.497Z,98045.50
2017-09-15T04:42:16.844Z,98043.19
2017-09-15T04:44:45.184Z,98048.47
2017-09-15T04:47:14.281Z,98048.38
2017-09-15T04:49:43.396Z,98051.41
2017-09-15T04:52:11.741Z,98050.30
2017-09-15T04:54:40.070Z,98051.52
2017-09-15T04:57:08.412Z,98052.23
2017-09-15T04:59:37.510Z,98050.84
2017-09-15T05:02:05.822Z,98052.74
2017-09-15T05:04:34.178Z,98050.44
2017-09-15T05:07:03.278Z,98046.30
2017-09-15T05:09:31.638Z,98049.06
2017-09-15T05:12:00.010Z,98047.21
2017-09-15T05:14:28.344Z,98052.34
2017-09-15T05:16:57.109Z,98046.62
2017-09-15T05:19:25.450Z,98048.80
2017-09-15T05:21:53.779Z,98043.25
2017-09-15T05:24:22.133Z,98055.47
2017-09-15T05:26:51.247Z,98052.19
2017-09-15T05:29:19.580Z,98050.18
2017-09-15T05:31:47.922Z,98053.69
2017-09-15T05:34:17.109Z,98054.73
2017-09-15T05:36:45.495Z,98055.91
2017-09-15T05:39:13.812Z,98048.88
2017-09-15T05:41:42.169Z,98051.02
2017-09-15T05:44:12.391Z,98045.38
2017-09-15T05:46:42.115Z,98042.97
2017-09-15T05:49:10.475Z,98048.41
2017-09-15T05:51:39.479Z,98048.54
2017-09-15T05:54:08.309Z,98052.08
2017-09-15T05:56:37.229Z,98047.10
2017-09-15T05:59:07.014Z,98045.30
2017-09-15T06:01:35.656Z,98046.20
2017-09-15T06:04:04.590Z,98043.06
2017-09-15T06:06:33.411Z,98043.05
2017-09-15T06:09:02.065Z,98043.16
2017-09-15T06:11:30.749Z,98037.72
2017-09-15T06:13:59.788Z,98039.45
2017-09-15T06:16:28.153Z,98043.06
2017-09-15T06:18:56.491Z,98044.28
2017-09-15T06:21:26.806Z,98040.84
2017-09-15T06:23:55.639Z,98046.48
2017-09-15T06:26:24.529Z,98047.56
2017-09-15T06:28:54.123Z,98047.57
2017-09-15T06:31:23.441Z,98046.23
2017-09-15T06:33:52.519Z,98045.34
2017-09-15T06:36:22.219Z,98049.58
2017-09-15T06:38:53.018Z,98052.71
2017-09-15T06:41:22.715Z,98044.44
2017-09-15T06:43:52.499Z,98037.78
2017-09-15T06:46:21.332Z,98036.58
2017-09-15T06:48:50.028Z,98037.31
2017-09-15T06:51:19.554Z,98034.89
2017-09-15T06:53:48.875Z,98038.72
2017-09-15T06:56:17.385Z,98035.28
2017-09-15T06:58:46.564Z,98035.92
2017-09-15T07:01:16.409Z,98037.42
2017-09-15T07:03:46.986Z,98025.53
2017-09-15T07:06:16.446Z,98025.72
2017-09-15T07:08:46.149Z,98031.79
2017-09-15T07:11:16.185Z,98030.98
2017-09-15T07:13:46.546Z,98030.61
2017-09-15T07:16:16.214Z,98035.86
2017-09-15T07:18:45.328Z,98029.72
2017-09-15T07:21:16.020Z,98025.16
2017-09-15T07:23:46.273Z,98025.48
2017-09-15T07:26:16.393Z,98028.59
2017-09-15T07:28:46.925Z,98021.77
2017-09-15T07:31:16.780Z,98033.77
2017-09-15T07:33:46.242Z,98031.23
2017-09-15T07:36:16.954Z,98029.64
2017-09-15T07:38:46.464Z,98025.20
2017-09-15T07:41:16.020Z,98025.71
2017-09-15T07:43:45.515Z,98029.03
2017-09-15T07:46:13.970Z,98031.69
2017-09-15T07:48:42.314Z,98031.16
2017-09-15T07:51:11.958Z,98028.84
2017-09-15T07:53:40.471Z,98025.22
2017-09-15T07:56:11.412Z,98025.63
2017-09-15T07:58:40.148Z,98024.00
2017-09-15T08:01:10.325Z,98023.00
2017-09-15T08:03:39.904Z,98017.94
2017-09-15T08:06:09.208Z,98021.59
2017-09-15T08:08:40.527Z,98026.34
2017-09-15T08:11:10.373Z,98027.93
2017-09-15T08:13:39.664Z,98030.96
2017-09-15T08:16:10.170Z,98025.52
2017-09-15T08:18:41.957Z,98029.05
2017-09-15T08:21:11.250Z,98025.52
2017-09-15T08:23:41.631Z,98030.17
2017-09-15T08:26:12.514Z,98028.45
2017-09-15T08:28:42.851Z,98032.50
2017-09-15T08:31:14.012Z,98028.38
2017-09-15T08:33:45.033Z,98028.38
2017-09-15T08:36:14.896Z,98026.42
2017-09-15T08:38:45.179Z,98027.03
2017-09-15T08:41:14.376Z,98024.70
2017-09-15T08:43:43.513Z,98028.41
2017-09-15T08:46:11.880Z,98042.27
2017-09-15T08:48:40.241Z,98033.80
2017-09-15T08:51:08.609Z,98034.58
2017-09-15T08:53:37.706Z,98031.69
2017-09-15T08:56:06.048Z,98030.97
2017-09-15T08:58:34.411Z,98031.05
2017-09-15T09:01:02.746Z,98024.08
2017-09-15T09:03:31.866Z,98028.28
2017-09-15T09:06:00.196Z,98024.95
2017-09-15T09:08:28.556Z,98025.05
2017-09-15T09:10:56.916Z,98021.30
2017-09-15T09:13:25.270Z,98020.48
2017-09-15T09:15:53.627Z,98030.08
2017-09-15T09:18:22.725Z,98026.32
2017-09-15T09:20:51.082Z,98031.99
2017-09-15T09:23:19.410Z,98040.27
2017-09-15T09:25:47.759Z,98041.67
2017-09-15T09:28:16.100Z,98041.56
2017-09-15T09:30:44.435Z,98040.34
2017-09-15T09:33:13.560Z,98042.52
2017-09-15T09:35:41.914Z,98035.75
2017-09-15T09:38:10.279Z,98036.58
2017-09-15T09:40:39.381Z,98039.53
2017-09-15T09:43:08.073Z,98036.51
2017-09-15T09:45:37.246Z,98038.41
2017-09-15T09:48:10.073Z,98036.00
2017-09-15T09:50:38.429Z,98036.09
2017-09-15T09:53:06.759Z,98044.07
2017-09-15T09:55:35.128Z,98038.44
2017-09-15T09:58:03.459Z,98036.10
2017-09-15T10:00:31.862Z,98031.55
2017-09-15T10:03:00.208Z,98037.22
2017-09-15T10:05:28.569Z,98040.92
2017-09-15T10:07:56.912Z,98044.32
2017-09-15T10:10:25.346Z,98044.42
2017-09-15T10:12:53.718Z,98042.20
2017-09-15T10:15:22.050Z,98036.82
2017-09-15T10:17:50.396Z,98038.94
2017-09-15T10:20:18.776Z,98046.52
2017-09-15T10:22:47.184Z,98047.45
2017-09-15T10:25:15.542Z,98039.06
2017-09-15T10:27:43.870Z,98029.06
2017-09-15T10:30:12.213Z,98033.91
2017-09-15T10:32:40.572Z,98033.25
2017-09-15T10:35:08.930Z,98033.67
2017-09-15T10:37:37.258Z,98025.05
2017-09-15T10:40:05.597Z,98021.98
2017-09-15T10:42:33.982Z,98025.45
2017-09-15T10:45:03.105Z,98023.39
2017-09-15T10:47:31.447Z,98018.14
2017-09-15T10:49:59.795Z,98023.50
2017-09-15T10:52:28.159Z,98013.53
2017-09-15T10:54:56.572Z,98008.92
2017-09-15T10:57:24.938Z,98009.85
2017-09-15T11:02:53.609Z,98001.15
2017-09-15T11:05:22.707Z,98001.84
2017-09-15T11:07:51.050Z,98001.92
2017-09-15T11:10:19.425Z,98001.77
2017-09-15T11:12:47.739Z,98002.20
2017-09-15T11:15:16.862Z,98002.36
2017-09-15T11:17:45.221Z,97994.80
2017-09-15T11:20:13.543Z,97999.17
2017-09-15T11:22:41.910Z,97985.84
2017-09-15T11:25:10.250Z,97980.38
2017-09-15T11:27:39.670Z,97979.00
2017-09-15T11:30:07.992Z,97973.37
2017-09-15T11:32:36.321Z,97971.96
2017-09-15T11:35:05.470Z,97967.73
2017-09-15T11:37:33.804Z,97966.35
2017-09-15T11:40:02.156Z,97969.23
2017-09-15T11:42:30.490Z,97969.77
2017-09-15T11:44:58.853Z,97966.95
2017-09-15T11:47:27.198Z,97973.41
2017-09-15T11:49:55.515Z,97957.14
2017-09-15T11:52:23.850Z,97957.66
2017-09-15T11:54:52.166Z,97957.59
2017-09-15T11:57:20.506Z,97957.12
2017-09-15T11:59:49.600Z,97961.09
2017-09-15T12:02:17.957Z,97968.90
2017-09-15T12:04:46.276Z,97963.75
2017-09-15T12:07:14.652Z,97947.22
2017-09-15T12:09:43.012Z,97939.49
2017-09-15T12:12:11.354Z,97936.28
2017-09-15T12:14:39.733Z,97943.27
2017-09-15T12:17:08.077Z,97947.50
2017-09-15T12:19:37.287Z,97946.75
2017-09-15T12:22:05.614Z,97944.76
2017-09-15T12:24:33.943Z,97935.09
2017-09-15T12:27:02.374Z,97933.45
2017-09-15T12:29:30.797Z,97929.41
2017-09-15T12:31:59.127Z,97932.30
2017-09-15T12:34:27.476Z,97928.37
2017-09-15T12:36:55.815Z,97924.97
2017-09-15T12:39:24.151Z,97924.85
2017-09-15T12:41:52.498Z,97924.21
2017-09-15T12:44:20.851Z,97925.94
2017-09-15T12:46:49.188Z,97920.98
2017-09-15T12:49:17.597Z,97918.38
2017-09-15T12:51:45.957Z,97915.38
2017-09-15T12:54:14.301Z,97909.39
2017-09-15T12:56:42.635Z,97910.23
2017-09-15T12:59:10.993Z,97899.35
2017-09-15T13:01:39.349Z,97897.09
2017-09-15T13:04:07.682Z,97894.42
2017-09-15T13:06:36.055Z,97890.02
2017-09-15T13:09:04.401Z,97889.37
2017-09-15T13:11:32.759Z,97885.34
2017-09-15T13:14:01.885Z,97874.95
2017-09-15T13:16:30.220Z,97870.31
2017-09-15T13:18:59.336Z,97875.88
2017-09-15T13:21:27.708Z,97873.86
2017-09-15T13:23:56.073Z,97872.91
2017-09-15T13:26:24.412Z,97870.32
2017-09-15T13:28:53.061Z,97868.69
2017-09-15T13:31:21.405Z,97872.14
2017-09-15T13:33:49.753Z,97866.87
2017-09-15T13:36:18.109Z,97871.17
2017-09-15T13:38:46.433Z,97867.81
2017-09-15T13:41:14.882Z,97865.50
2017-09-15T13:43:43.213Z,97866.66
2017-09-15T13:46:12.645Z,97870.73
2017-09-15T13:48:40.985Z,97870.03
2017-09-15T13:51:09.321Z,97878.03
2017-09-15T13:53:37.688Z,97878.84
2017-09-15T13:56:06.032Z,97885.13
2017-09-15T13:58:34.408Z,97888.41
2017-09-15T14:01:02.744Z,97891.49
2017-09-15T14:03:31.584Z,97893.51
2017-09-15T14:05:59.920Z,97903.30
2017-09-15T14:08:28.265Z,97910.04
2017-09-15T14:10:56.635Z,97903.23
2017-09-15T14:13:25.740Z,97899.00
2017-09-15T14:15:54.096Z,97887.70
2017-09-15T14:18:22.417Z,97892.94
2017-09-15T14:20:50.803Z,97893.19
2017-09-15T14:23:19.120Z,97880.14
2017-09-15T14:25:47.479Z,97868.68
2017-09-15T14:28:15.921Z,97875.59
2017-09-15T14:30:45.241Z,97867.05
2017-09-15T14:33:13.619Z,97864.99
2017-09-15T14:35:41.991Z,97859.78
2017-09-15T14:38:11.296Z,97856.83
2017-09-15T14:40:39.710Z,97845.48
2017-09-15T14:43:08.052Z,97852.91
2017-09-15T14:45:36.478Z,97852.91
2017-09-15T14:48:04.795Z,97849.70
2017-09-15T14:50:34.181Z,97846.13
2017-09-15T14:53:03.710Z,97843.28
2017-09-15T14:55:33.035Z,97839.73
2017-09-15T14:58:03.228Z,97837.84
2017-09-15T15:00:32.519Z,97838.61
2017-09-15T15:03:01.843Z,97842.73
2017-09-15T15:05:31.168Z,97843.11
2017-09-15T15:08:00.443Z,97845.28
2017-09-15T15:10:29.741Z,97840.39
2017-09-15T15:12:58.142Z,97842.75
2017-09-15T15:15:26.475Z,97841.59
2017-09-15T15:17:55.816Z,97852.16
2017-09-15T15:20:34.592Z,97844.63
2017-09-15T15:23:02.961Z,97846.10
2017-09-15T15:25:32.324Z,97851.39
2017-09-15T15:28:00.682Z,97849.13
2017-09-15T15:30:32.139Z,97840.55
2017-09-15T15:33:05.815Z,97833.21
2017-09-15T15:35:35.657Z,97830.72
2017-09-15T15:38:06.813Z,97829.61
2017-09-15T15:40:36.508Z,97826.93
2017-09-15T15:43:05.712Z,97826.84
2017-09-15T15:45:39.991Z,97827.36
2017-09-15T15:48:08.307Z,97823.66
2017-09-15T15:50:38.531Z,97834.72
2017-09-15T15:53:12.768Z,97840.34
2017-09-15T15:55:44.525Z,97845.50
2017-09-15T15:58:13.158Z,97849.32
2017-09-15T16:00:41.591Z,97854.49
2017-09-15T16:03:09.952Z,97861.31
2017-09-15T16:05:39.274Z,97865.38
2017-09-15T16:08:07.678Z,97871.14
2017-09-15T16:10:36.071Z,97861.33
2017-09-15T16:13:04.417Z,97857.31
2017-09-15T16:15:32.889Z,97856.53
2017-09-15T16:18:01.271Z,97851.59
2017-09-15T16:20:29.764Z,97853.16
2017-09-15T16:22:58.278Z,97861.08
2017-09-15T16:25:26.628Z,97856.17
2017-09-15T16:27:55.025Z,97856.99
2017-09-15T16:30:24.277Z,97855.47
2017-09-15T16:32:53.877Z,97852.56
2017-09-15T16:35:22.278Z,97860.31
2017-09-15T16:37:50.965Z,97859.97
2017-09-15T16:40:25.832Z,97859.39
2017-09-15T16:42:59.556Z,97862.88
2017-09-15T16:45:35.365Z,97864.42
2017-09-15T16:48:09.473Z,97867.06
2017-09-15T16:50:37.825Z,97868.73
2017-09-15T16:53:07.344Z,97865.63
2017-09-15T16:55:35.754Z,97870.61
2017-09-15T16:58:07.179Z,97870.33
2017-09-15T17:00:35.821Z,97874.91
2017-09-15T17:03:04.918Z,97875.67
2017-09-15T17:05:33.256Z,97876.78
2017-09-15T17:08:02.563Z,97881.92
2017-09-15T17:10:31.675Z,97884.75
2017-09-15T17:13:02.137Z,97880.34
2017-09-15T17:15:31.421Z,97881.84
2017-09-15T17:18:05.909Z,97877.28
2017-09-15T17:20:36.191Z,97873.34
2017-09-15T17:23:05.735Z,97875.48
2017-09-15T17:25:35.972Z,97880.13
2017-09-15T17:28:04.315Z,97882.70
2017-09-15T17:30:36.458Z,97879.90
2017-09-15T17:33:06.737Z,97884.63
2017-09-15T17:35:39.331Z,97882.59
2017-09-15T17:38:07.699Z,97883.19
2017-09-15T17:40:39.122Z,97884.61
2017-09-15T17:43:07.530Z,97902.00
2017-09-15T17:45:36.641Z,97898.50
2017-09-15T17:48:05.001Z,97903.63
2017-09-15T17:50:34.103Z,97901.91
2017-09-15T17:53:02.460Z,97903.91
2017-09-15T17:55:30.794Z,97901.19
2017-09-15T17:57:59.455Z,97901.41
2017-09-15T18:00:27.780Z,97905.93
2017-09-15T18:02:56.095Z,97911.08
2017-09-15T18:05:25.428Z,97906.32
2017-09-15T18:07:54.908Z,97910.73
2017-09-15T18:10:24.285Z,97913.95
2017-09-15T18:12:52.615Z,97918.30
2017-09-15T18:15:22.273Z,97923.14
2017-09-15T18:17:50.658Z,97925.56
2017-09-15T18:20:19.236Z,97926.63
2017-09-15T18:22:47.612Z,97938.16
2017-09-15T18:25:16.298Z,97930.13
2017-09-15T18:27:44.650Z,97935.52
2017-09-15T18:30:12.983Z,97947.12
2017-09-15T18:32:42.072Z,97944.67
2017-09-15T18:35:10.430Z,97942.56
2017-09-15T18:37:38.775Z,97941.27
2017-09-15T18:40:07.160Z,97949.09
2017-09-15T18:42:35.494Z,97955.63
2017-09-15T18:45:04.131Z,97951.55
2017-09-15T18:47:32.467Z,97955.21
2017-09-15T18:50:01.616Z,97961.09
2017-09-15T18:52:30.013Z,97965.11
2017-09-15T18:54:58.369Z,97968.92
2017-09-15T18:57:26.733Z,97960.41
2017-09-15T18:59:55.114Z,97960.80
2017-09-15T19:02:23.469Z,97964.76
2017-09-15T19:04:52.948Z,97967.42
2017-09-15T19:07:21.371Z,97965.91
2017-09-15T19:09:49.989Z,97965.62
2017-09-15T19:12:18.402Z,97958.78
2017-09-15T19:14:46.832Z,97959.53
2017-09-15T19:17:15.173Z,97957.80
2017-09-15T19:19:44.565Z,97959.59
2017-09-15T19:22:12.912Z,97953.57
2017-09-15T19:24:41.378Z,97956.39
2017-09-15T19:27:09.718Z,97961.22
2017-09-15T19:29:38.808Z,97957.41
2017-09-15T19:32:07.331Z,97960.66
2017-09-15T19:34:36.601Z,97946.95
2017-09-15T19:37:12.283Z,97946.41
2017-09-15T19:39:40.735Z,97939.88
2017-09-15T19:42:10.059Z,97935.13
2017-09-15T19:44:38.448Z,97936.27
2017-09-15T19:47:06.773Z,97942.05
2017-09-15T19:49:35.109Z,97937.80
2017-09-15T19:52:03.454Z,97935.03
2017-09-15T19:54:32.373Z,97942.16
2017-09-15T19:57:00.695Z,97938.67
2017-09-15T19:59:29.534Z,97934.96
2017-09-15T20:01:58.482Z,97932.48
2017-09-15T20:04:27.356Z,97933.11
2017-09-15T20:06:56.287Z,97929.30
2017-09-15T20:09:25.954Z,97925.91
2017-09-15T20:11:54.923Z,97928.17
2017-09-15T20:14:23.765Z,97923.23
2017-09-15T20:16:52.664Z,97920.66
2017-09-15T20:19:21.371Z,97928.87
2017-09-15T20:21:49.708Z,97931.33
2017-09-15T20:24:18.042Z,97929.88
2017-09-15T20:26:46.405Z,97937.52
2017-09-15T20:29:15.516Z,97941.03
2017-09-15T20:31:43.862Z,97945.48
2017-09-15T20:34:12.181Z,97946.61
2017-09-15T20:36:40.916Z,97945.00
2017-09-15T20:39:09.275Z,97944.08
2017-09-15T20:41:37.593Z,97948.27
2017-09-15T20:44:05.949Z,97944.05
2017-09-15T20:46:34.285Z,97945.23
2017-09-15T20:49:02.622Z,97948.97
2017-09-15T20:51:30.954Z,97950.52
2017-09-15T20:53:59.559Z,97953.29
2017-09-15T20:56:27.883Z,97959.36
2017-09-15T20:58:56.964Z,97954.25
2017-09-15T21:01:25.305Z,97952.98
2017-09-15T21:03:53.637Z,97955.65
2017-09-15T21:06:22.959Z,97959.35
2017-09-15T21:08:52.063Z,97951.69
2017-09-15T21:11:20.664Z,97958.63
2017-09-15T21:13:49.029Z,97956.50
2017-09-15T21:16:17.349Z,97955.53
2017-09-15T21:18:45.707Z,97955.21
2017-09-15T21:21:14.051Z,97956.31
2017-09-15T21:23:42.421Z,97961.33
2017-09-15T21:26:10.931Z,97959.05
2017-09-15T21:28:39.533Z,97953.14
2017-09-15T21:31:08.641Z,97957.41
2017-09-15T21:33:36.987Z,97957.86
2017-09-15T21:36:05.325Z,97957.94
2017-09-15T21:38:33.649Z,97953.42
2017-09-15T21:41:01.990Z,97953.78
2017-09-15T21:43:30.310Z,97949.50
2017-09-15T21:45:58.654Z,97948.32
2017-09-15T21:48:26.978Z,97950.40
2017-09-15T21:50:55.368Z,97944.60
2017-09-15T21:53:23.713Z,97948.28
2017-09-15T21:55:52.795Z,97945.87
2017-09-15T21:58:21.174Z,97946.59
2017-09-15T22:00:49.504Z,97945.86
2017-09-15T22:03:18.393Z,97944.02
2017-09-15T22:05:48.905Z,97942.08
2017-09-15T22:08:17.396Z,97944.32
2017-09-15T22:10:45.742Z,97952.68
2017-09-15T22:13:14.861Z,97947.77
2017-09-15T22:15:43.207Z,97950.78
2017-09-15T22:18:11.540Z,97954.69
2017-09-15T22:20:39.897Z,97951.67
2017-09-15T22:23:08.246Z,97950.63
2017-09-15T22:25:36.614Z,97954.41
2017-09-15T22:28:04.978Z,97950.95
2017-09-15T22:30:33.294Z,97950.74
2017-09-15T22:33:02.404Z,97950.36
2017-09-15T22:35:30.742Z,97948.69
2017-09-15T22:37:59.092Z,97946.94
2017-09-15T22:40:27.406Z,97943.09
2017-09-15T22:42:55.743Z,97947.17
2017-09-15T22:45:24.079Z,97942.47
2017-09-15T22:47:53.159Z,97943.63
2017-09-15T22:50:21.506Z,97936.61
2017-09-15T22:52:49.829Z,97941.89
2017-09-15T22:55:18.426Z,97939.52
2017-09-15T22:57:47.545Z,97940.80
2017-09-15T23:00:15.869Z,97937.06
2017-09-15T23:02:44.212Z,97942.22
2017-09-15T23:05:12.520Z,97935.81
2017-09-15T23:07:40.881Z,97931.47
2017-09-15T23:10:09.195Z,97932.41
2017-09-15T23:12:37.806Z,97937.91
2017-09-15T23:15:06.904Z,97933.25
2017-09-15T23:17:36.002Z,97926.39
2017-09-15T23:20:05.097Z,97927.09
2017-09-15T23:22:34.175Z,97928.05
2017-09-15T23:25:02.515Z,97931.84
2017-09-15T23:27:30.831Z,97917.22
2017-09-15T23:29:59.167Z,97921.64
2017-09-15T23:32:27.498Z,97930.19
2017-09-15T23:34:56.596Z,97926.33
2017-09-15T23:37:25.698Z,97919.17
2017-09-15T23:39:54.776Z,97924.11
2017-09-15T23:42:23.364Z,97928.20
2017-09-15T23:44:51.676Z,97918.88
2017-09-15T23:47:19.991Z,97923.30
2017-09-15T23:49:48.348Z,97921.37
2017-09-15T23:52:16.690Z,97919.91
2017-09-15T23:54:45.805Z,97922.13
2017-09-15T23:57:14.141Z,97923.22
2017-09-15T23:59:42.495Z,97925.08
